ROYN/OGN METAR and TAF weather

Enter ICAO airport designator
Station Type Date Time Source
ROYN METAR 2021/09/27 06:00 UTC NOAA

ROYN 270600Z AUTO 02015KT 9999 FEW017 30/26 Q1008


Station Type Date Time Source
ROYN Decoded METAR 2021/09/27 06:00 UTC NOAA

Yonaguni Airport, Japan (ROYN) 24-28N 122-59E 19M
Sep 27, 2021 - 02:00 AM EDT / 2021.09.27 0600 UTC
Wind: from the NNE (020 degrees) at 17 MPH (15 KT):0
Visibility: greater than 7 mile(s):0
Sky conditions: mostly clear
Temperature: 86 F (30 C)
Heat index: 99.3 F (37.4 C):1
Dew Point: 78 F (26 C)
Relative Humidity: 79%
Pressure (altimeter): 29.77 in. Hg (1008 hPa)
ob: ROYN 270600Z AUTO 02015KT 9999 FEW017 30/26 Q1008
cycle: 6

Station Type Date Time Source
ROYN TAF UTC NOAA

Error!

Example: see airport list